Main page
Satellite images 15-day forecastsClimateMarine weather Cyclones Lightning AirportsFAQ Newsletter About
Weather : Europe Africa North America South America Asia Australia-Oceania Others
Languages Contact

Buenos Aires, Argentina

Aeroparque Jorge Newbery

latitude: 34-34S, longitude: 058-25W, elevation: 6 m


METAR: SABE 231500Z 17015KT 130V210 9999 FEW010 10/06 Q1017
short-TAF: out of date (16121 hours)
long-TAF: SABE 231100Z 2312/2412 18015KT 9999 SCT030 OVC090 TX13/2318Z TN04/2411Z

Time: 12:35 (15:35 UTC)

Current weather observation

The report was made 35 minutes ago, at 15:00 UTC  
Wind 15 kt from the South, varying between Southeast and South/Southwest
Temperature 10°C
Humidity 76%
Pressure 1017 hPa
Visibility 10 km or more
Few clouds at a height of 1000 ft

Change units

Forecast

The report was made 4 hours and 32 minutes ago, at 11:03 UTC  
Forecast valid from 23 at 12 UTC to 24 at 12 UTC
Wind 15 kt from the South
Visibility 10 km or more
Scattered clouds at a height of 3000 ft
Overcast at a height of 9000 ft
The information on this site is subject to a disclaimer
Weather : Europe Africa North America South America Asia Australia-Oceania Others
Satellite images 15-day forecastsClimateMarine weather Cyclones Lightning AirportsFAQ Languages Contact Newsletter About